Jerusalem, Rhode Island
Current Conditions -  °F | °C
As of 10:53 PM on Friday 28 Nov 2014 (Local Time) from KWST Reporting Station
Clear Clear  
Wind Chill: 21°   Ceiling: Unl
Heat Index: 26°   Visibility: 10mi
Dew Point: 15°   Wind: 5mph
Humidity: 63%   Direction: 300°WNW
Pressure: 30.24"   Gusts: NA
Location:  41.4261°N, 71.5353°W
Report Text: KWST 290353Z AUTO 30004KT 10SM CLR M03/M09 A3024 RMK AO2 SLP240 T10331094 $
Loading
Personal Weather Stations






























Interactive Weather Map New forecast layout! Learn more

10-Day Weather Forecast

Advertisements
Track Severe Weather on mobile